sensor_id;sensor_type;location;lat;lon;timestamp;pressure;altitude;pressure_sealevel;temperature;humidity
39177;BME280;24904;52.208;21.192;2023-02-21T00:00:31;99115.31;;;6.88;84.94
39177;BME280;24904;52.208;21.192;2023-02-21T00:05:52;99105.23;;;6.83;85.30
39177;BME280;24904;52.208;21.192;2023-02-21T00:11:13;99091.06;;;6.85;85.40
39177;BME280;24904;52.208;21.192;2023-02-21T00:16:35;99081.27;;;6.91;85.34
39177;BME280;24904;52.208;21.192;2023-02-21T00:21:56;99080.52;;;7.00;85.03
39177;BME280;24904;52.208;21.192;2023-02-21T00:27:17;99100.85;;;7.07;84.21
39177;BME280;24904;52.208;21.192;2023-02-21T00:32:38;99114.66;;;7.14;82.11
39177;BME280;24904;52.208;21.192;2023-02-21T00:37:59;99107.75;;;7.18;81.84
39177;BME280;24904;52.208;21.192;2023-02-21T00:43:20;99104.95;;;7.17;81.93
39177;BME280;24904;52.208;21.192;2023-02-21T00:48:46;99111.46;;;7.11;82.30
39177;BME280;24904;52.208;21.192;2023-02-21T00:54:07;99116.61;;;7.11;82.59
39177;BME280;24904;52.208;21.192;2023-02-21T00:59:28;99109.52;;;7.13;82.05
39177;BME280;24904;52.208;21.192;2023-02-21T01:04:50;99102.05;;;7.17;81.74
39177;BME280;24904;52.208;21.192;2023-02-21T01:10:11;99092.41;;;7.22;81.11
39177;BME280;24904;52.208;21.192;2023-02-21T01:15:32;99097.34;;;7.28;80.19
39177;BME280;24904;52.208;21.192;2023-02-21T01:20:55;99091.13;;;7.35;79.22
39177;BME280;24904;52.208;21.192;2023-02-21T01:26:16;99090.83;;;7.40;78.29
39177;BME280;24904;52.208;21.192;2023-02-21T01:31:37;99083.73;;;7.43;76.64
39177;BME280;24904;52.208;21.192;2023-02-21T01:36:58;99075.77;;;7.44;76.13
39177;BME280;24904;52.208;21.192;2023-02-21T01:42:19;99079.13;;;7.43;75.54
39177;BME280;24904;52.208;21.192;2023-02-21T01:47:41;99078.19;;;7.40;74.51
39177;BME280;24904;52.208;21.192;2023-02-21T01:53:06;99094.80;;;7.37;73.71
39177;BME280;24904;52.208;21.192;2023-02-21T01:58:30;99085.60;;;7.37;73.46
39177;BME280;24904;52.208;21.192;2023-02-21T02:03:53;99081.39;;;7.36;72.51
39177;BME280;24904;52.208;21.192;2023-02-21T02:09:17;99087.23;;;7.34;72.71
39177;BME280;24904;52.208;21.192;2023-02-21T02:15:00;99083.86;;;7.33;72.95
39177;BME280;24904;52.208;21.192;2023-02-21T02:20:43;99086.19;;;7.28;73.09
39177;BME280;24904;52.208;21.192;2023-02-21T02:26:06;99085.86;;;7.25;73.48
39177;BME280;24904;52.208;21.192;2023-02-21T02:31:32;99088.84;;;7.28;73.89
39177;BME280;24904;52.208;21.192;2023-02-21T02:36:45;99088.36;;;7.28;73.68
39177;BME280;24904;52.208;21.192;2023-02-21T02:41:53;99095.15;;;7.29;73.79
39177;BME280;24904;52.208;21.192;2023-02-21T02:57:15;99094.85;;;7.32;74.08
39177;BME280;24904;52.208;21.192;2023-02-21T03:02:43;99088.13;;;7.24;74.46
39177;BME280;24904;52.208;21.192;2023-02-21T03:08:00;99091.73;;;7.13;74.60
39177;BME280;24904;52.208;21.192;2023-02-21T03:13:14;99083.61;;;7.05;73.70
39177;BME280;24904;52.208;21.192;2023-02-21T03:18:27;99078.77;;;7.05;72.33
39177;BME280;24904;52.208;21.192;2023-02-21T03:23:35;99073.86;;;7.06;71.12
39177;BME280;24904;52.208;21.192;2023-02-21T03:28:43;99068.89;;;7.08;71.41
39177;BME280;24904;52.208;21.192;2023-02-21T03:33:48;99072.63;;;7.10;71.07
39177;BME280;24904;52.208;21.192;2023-02-21T03:38:56;99074.34;;;7.09;70.72
39177;BME280;24904;52.208;21.192;2023-02-21T03:44:02;99087.98;;;7.09;71.14
39177;BME280;24904;52.208;21.192;2023-02-21T03:49:07;99085.55;;;7.05;71.65
39177;BME280;24904;52.208;21.192;2023-02-21T03:54:12;99082.73;;;7.02;72.53
39177;BME280;24904;52.208;21.192;2023-02-21T03:59:21;99086.13;;;6.96;72.32
39177;BME280;24904;52.208;21.192;2023-02-21T04:04:27;99086.23;;;6.88;71.03
39177;BME280;24904;52.208;21.192;2023-02-21T04:09:42;99085.69;;;6.86;70.51
39177;BME280;24904;52.208;21.192;2023-02-21T04:14:51;99081.60;;;6.81;69.52
39177;BME280;24904;52.208;21.192;2023-02-21T04:19:59;99087.39;;;6.82;69.27
39177;BME280;24904;52.208;21.192;2023-02-21T04:25:05;99077.33;;;6.80;68.22
39177;BME280;24904;52.208;21.192;2023-02-21T04:30:16;99087.22;;;6.79;67.42
39177;BME280;24904;52.208;21.192;2023-02-21T04:35:21;99078.39;;;6.76;67.44
39177;BME280;24904;52.208;21.192;2023-02-21T04:40:27;99094.56;;;6.71;66.60
39177;BME280;24904;52.208;21.192;2023-02-21T04:45:32;99099.92;;;6.68;66.37
39177;BME280;24904;52.208;21.192;2023-02-21T04:50:37;99099.29;;;6.63;65.08
39177;BME280;24904;52.208;21.192;2023-02-21T04:55:42;99106.93;;;6.64;65.73
39177;BME280;24904;52.208;21.192;2023-02-21T05:00:48;99107.08;;;6.62;64.70
39177;BME280;24904;52.208;21.192;2023-02-21T05:05:53;99107.61;;;6.62;64.17
39177;BME280;24904;52.208;21.192;2023-02-21T05:10:58;99106.34;;;6.61;63.91
39177;BME280;24904;52.208;21.192;2023-02-21T05:16:03;99104.23;;;6.60;63.70
39177;BME280;24904;52.208;21.192;2023-02-21T05:21:08;99103.45;;;6.59;62.95
39177;BME280;24904;52.208;21.192;2023-02-21T05:26:14;99111.86;;;6.59;63.32
39177;BME280;24904;52.208;21.192;2023-02-21T05:31:19;99113.20;;;6.59;61.70
39177;BME280;24904;52.208;21.192;2023-02-21T05:36:24;99115.45;;;6.59;62.46
39177;BME280;24904;52.208;21.192;2023-02-21T05:41:29;99113.02;;;6.60;62.21
39177;BME280;24904;52.208;21.192;2023-02-21T05:46:35;99124.33;;;6.59;61.69
39177;BME280;24904;52.208;21.192;2023-02-21T05:51:42;99131.88;;;6.58;61.61
39177;BME280;24904;52.208;21.192;2023-02-21T05:56:48;99129.55;;;6.58;61.84
39177;BME280;24904;52.208;21.192;2023-02-21T06:01:54;99140.23;;;6.60;62.29
39177;BME280;24904;52.208;21.192;2023-02-21T06:06:59;99137.22;;;6.62;61.93
39177;BME280;24904;52.208;21.192;2023-02-21T06:12:04;99135.14;;;6.64;62.11
39177;BME280;24904;52.208;21.192;2023-02-21T06:17:09;99140.37;;;6.65;62.92
39177;BME280;24904;52.208;21.192;2023-02-21T06:22:14;99146.83;;;6.64;62.56
39177;BME280;24904;52.208;21.192;2023-02-21T06:27:20;99149.38;;;6.62;62.35
39177;BME280;24904;52.208;21.192;2023-02-21T06:32:25;99152.82;;;6.63;63.02
39177;BME280;24904;52.208;21.192;2023-02-21T06:37:30;99154.08;;;6.64;62.86
39177;BME280;24904;52.208;21.192;2023-02-21T06:42:35;99152.30;;;6.67;62.86
39177;BME280;24904;52.208;21.192;2023-02-21T06:47:40;99160.24;;;6.66;62.67
39177;BME280;24904;52.208;21.192;2023-02-21T06:52:45;99167.48;;;6.66;62.66
39177;BME280;24904;52.208;21.192;2023-02-21T06:57:51;99172.48;;;6.68;62.77
39177;BME280;24904;52.208;21.192;2023-02-21T07:02:56;99178.11;;;6.70;62.53
39177;BME280;24904;52.208;21.192;2023-02-21T07:08:01;99178.35;;;6.71;62.45
39177;BME280;24904;52.208;21.192;2023-02-21T07:13:06;99201.04;;;6.72;62.45
39177;BME280;24904;52.208;21.192;2023-02-21T07:18:11;99211.59;;;6.75;62.65
39177;BME280;24904;52.208;21.192;2023-02-21T07:23:16;99215.30;;;6.73;63.07
39177;BME280;24904;52.208;21.192;2023-02-21T07:28:21;99232.56;;;6.67;62.76
39177;BME280;24904;52.208;21.192;2023-02-21T07:33:26;99239.08;;;6.63;63.36
39177;BME280;24904;52.208;21.192;2023-02-21T07:38:32;99253.05;;;6.64;63.22
39177;BME280;24904;52.208;21.192;2023-02-21T07:43:37;99263.73;;;6.60;62.91
39177;BME280;24904;52.208;21.192;2023-02-21T07:48:42;99279.77;;;6.58;63.97
39177;BME280;24904;52.208;21.192;2023-02-21T07:53:48;99289.64;;;6.53;64.15
39177;BME280;24904;52.208;21.192;2023-02-21T07:58:52;99290.73;;;6.52;64.61
39177;BME280;24904;52.208;21.192;2023-02-21T08:03:58;99301.77;;;6.50;64.87
39177;BME280;24904;52.208;21.192;2023-02-21T08:09:03;99309.58;;;6.52;65.19
39177;BME280;24904;52.208;21.192;2023-02-21T08:14:08;99315.80;;;6.51;65.25
39177;BME280;24904;52.208;21.192;2023-02-21T08:19:13;99313.67;;;6.49;64.92
39177;BME280;24904;52.208;21.192;2023-02-21T08:24:19;99325.78;;;6.52;65.21
39177;BME280;24904;52.208;21.192;2023-02-21T08:29:24;99338.86;;;6.51;66.09
39177;BME280;24904;52.208;21.192;2023-02-21T08:34:29;99342.41;;;6.43;67.59
39177;BME280;24904;52.208;21.192;2023-02-21T08:39:34;99342.72;;;6.33;67.81
39177;BME280;24904;52.208;21.192;2023-02-21T08:44:41;99356.92;;;6.36;68.09
39177;BME280;24904;52.208;21.192;2023-02-21T08:49:47;99369.10;;;6.38;68.24
39177;BME280;24904;52.208;21.192;2023-02-21T08:54:52;99368.00;;;6.37;67.92
39177;BME280;24904;52.208;21.192;2023-02-21T08:59:57;99374.71;;;6.39;67.97
39177;BME280;24904;52.208;21.192;2023-02-21T09:05:02;99376.42;;;6.46;67.63
39177;BME280;24904;52.208;21.192;2023-02-21T09:10:09;99393.45;;;6.49;67.55
39177;BME280;24904;52.208;21.192;2023-02-21T09:15:16;99398.73;;;6.53;67.44
39177;BME280;24904;52.208;21.192;2023-02-21T09:20:23;99400.86;;;6.57;67.59
39177;BME280;24904;52.208;21.192;2023-02-21T09:25:29;99406.17;;;6.58;67.61
39177;BME280;24904;52.208;21.192;2023-02-21T09:30:34;99419.81;;;6.59;68.00
39177;BME280;24904;52.208;21.192;2023-02-21T09:35:39;99422.30;;;6.50;68.93
39177;BME280;24904;52.208;21.192;2023-02-21T09:40:47;99433.55;;;6.48;69.49
39177;BME280;24904;52.208;21.192;2023-02-21T09:45:59;99438.38;;;6.47;70.23
39177;BME280;24904;52.208;21.192;2023-02-21T09:51:07;99441.05;;;6.42;70.33
39177;BME280;24904;52.208;21.192;2023-02-21T09:56:17;99445.57;;;6.37;70.18
39177;BME280;24904;52.208;21.192;2023-02-21T10:01:32;99453.83;;;6.36;70.45
39177;BME280;24904;52.208;21.192;2023-02-21T10:06:49;99460.23;;;6.44;70.71
39177;BME280;24904;52.208;21.192;2023-02-21T10:12:02;99465.47;;;6.46;71.16
39177;BME280;24904;52.208;21.192;2023-02-21T10:17:17;99477.15;;;6.50;71.10
39177;BME280;24904;52.208;21.192;2023-02-21T10:22:26;99479.14;;;6.55;70.71
39177;BME280;24904;52.208;21.192;2023-02-21T10:27:33;99481.20;;;6.69;70.95
39177;BME280;24904;52.208;21.192;2023-02-21T10:32:39;99489.02;;;6.77;70.08
39177;BME280;24904;52.208;21.192;2023-02-21T10:37:46;99496.20;;;6.78;69.88
39177;BME280;24904;52.208;21.192;2023-02-21T10:42:55;99497.24;;;6.80;69.72
39177;BME280;24904;52.208;21.192;2023-02-21T10:48:02;99502.36;;;6.86;69.62
39177;BME280;24904;52.208;21.192;2023-02-21T10:53:08;99512.19;;;6.86;70.01
39177;BME280;24904;52.208;21.192;2023-02-21T10:58:28;99519.96;;;6.77;71.41
39177;BME280;24904;52.208;21.192;2023-02-21T11:03:34;99534.37;;;6.64;72.40
39177;BME280;24904;52.208;21.192;2023-02-21T11:08:43;99536.02;;;6.48;73.05
39177;BME280;24904;52.208;21.192;2023-02-21T11:13:48;99542.56;;;6.38;73.34
39177;BME280;24904;52.208;21.192;2023-02-21T11:19:05;99556.15;;;6.29;74.07
39177;BME280;24904;52.208;21.192;2023-02-21T11:24:11;99559.54;;;6.26;74.24
39177;BME280;24904;52.208;21.192;2023-02-21T11:29:24;99563.77;;;6.29;74.42
39177;BME280;24904;52.208;21.192;2023-02-21T11:34:30;99562.21;;;6.29;73.65
39177;BME280;24904;52.208;21.192;2023-02-21T11:39:35;99569.27;;;6.32;73.22
39177;BME280;24904;52.208;21.192;2023-02-21T11:44:41;99570.18;;;6.39;72.77
39177;BME280;24904;52.208;21.192;2023-02-21T11:49:53;99565.12;;;6.56;72.01
39177;BME280;24904;52.208;21.192;2023-02-21T11:55:02;99568.39;;;6.68;71.19
39177;BME280;24904;52.208;21.192;2023-02-21T12:00:17;99566.77;;;6.79;70.97
39177;BME280;24904;52.208;21.192;2023-02-21T12:05:33;99572.42;;;6.89;70.06
39177;BME280;24904;52.208;21.192;2023-02-21T12:10:46;99584.39;;;6.91;70.76
39177;BME280;24904;52.208;21.192;2023-02-21T12:16:01;99593.20;;;6.87;71.69
39177;BME280;24904;52.208;21.192;2023-02-21T12:21:29;99592.73;;;6.80;72.17
39177;BME280;24904;52.208;21.192;2023-02-21T12:26:48;99587.48;;;6.73;72.25
39177;BME280;24904;52.208;21.192;2023-02-21T12:32:43;99604.16;;;6.73;71.85
39177;BME280;24904;52.208;21.192;2023-02-21T12:37:54;99608.64;;;6.70;71.66
39177;BME280;24904;52.208;21.192;2023-02-21T12:43:16;99601.89;;;6.76;71.30
39177;BME280;24904;52.208;21.192;2023-02-21T12:48:28;99603.58;;;6.81;70.84
39177;BME280;24904;52.208;21.192;2023-02-21T12:53:37;99602.09;;;6.92;70.57
39177;BME280;24904;52.208;21.192;2023-02-21T12:58:48;99605.83;;;6.98;69.84
39177;BME280;24904;52.208;21.192;2023-02-21T13:03:53;99611.59;;;7.03;69.81
39177;BME280;24904;52.208;21.192;2023-02-21T13:09:08;99613.17;;;7.10;69.72
39177;BME280;24904;52.208;21.192;2023-02-21T13:14:18;99614.23;;;7.20;69.45
39177;BME280;24904;52.208;21.192;2023-02-21T13:19:22;99622.90;;;7.28;68.68
39177;BME280;24904;52.208;21.192;2023-02-21T13:24:47;99630.52;;;7.31;67.86
39177;BME280;24904;52.208;21.192;2023-02-21T13:30:02;99638.92;;;7.35;68.03
39177;BME280;24904;52.208;21.192;2023-02-21T13:35:10;99641.40;;;7.34;67.34
39177;BME280;24904;52.208;21.192;2023-02-21T13:40:23;99653.58;;;7.34;67.48
39177;BME280;24904;52.208;21.192;2023-02-21T13:45:27;99660.98;;;7.30;66.81
39177;BME280;24904;52.208;21.192;2023-02-21T13:56:23;99677.42;;;7.15;66.95
39177;BME280;24904;52.208;21.192;2023-02-21T14:01:42;99683.93;;;7.11;67.83
39177;BME280;24904;52.208;21.192;2023-02-21T14:06:55;99686.44;;;7.07;67.23
39177;BME280;24904;52.208;21.192;2023-02-21T14:12:01;99692.02;;;7.00;67.49
39177;BME280;24904;52.208;21.192;2023-02-21T14:17:08;99700.90;;;6.99;67.89
39177;BME280;24904;52.208;21.192;2023-02-21T14:22:14;99711.83;;;7.00;67.84
39177;BME280;24904;52.208;21.192;2023-02-21T14:27:45;99711.70;;;6.96;67.99
39177;BME280;24904;52.208;21.192;2023-02-21T14:32:49;99725.52;;;6.97;67.97
39177;BME280;24904;52.208;21.192;2023-02-21T14:37:58;99726.77;;;6.97;68.05
39177;BME280;24904;52.208;21.192;2023-02-21T14:48:57;99731.35;;;7.05;67.83
39177;BME280;24904;52.208;21.192;2023-02-21T14:59:45;99741.33;;;7.05;67.26
39177;BME280;24904;52.208;21.192;2023-02-21T15:04:59;99739.83;;;7.04;66.93
39177;BME280;24904;52.208;21.192;2023-02-21T15:10:16;99741.27;;;7.06;67.18
39177;BME280;24904;52.208;21.192;2023-02-21T15:15:23;99751.13;;;7.09;66.85
39177;BME280;24904;52.208;21.192;2023-02-21T15:20:28;99755.48;;;7.09;66.69
39177;BME280;24904;52.208;21.192;2023-02-21T15:25:32;99766.08;;;7.07;66.51
39177;BME280;24904;52.208;21.192;2023-02-21T15:30:37;99772.76;;;7.05;66.65
39177;BME280;24904;52.208;21.192;2023-02-21T15:35:44;99782.41;;;7.04;66.88
39177;BME280;24904;52.208;21.192;2023-02-21T15:40:49;99782.75;;;7.02;66.93
39177;BME280;24904;52.208;21.192;2023-02-21T15:45:58;99795.43;;;7.00;66.95
39177;BME280;24904;52.208;21.192;2023-02-21T15:51:05;99798.40;;;7.00;67.13
39177;BME280;24904;52.208;21.192;2023-02-21T15:56:22;99801.05;;;7.00;67.96
39177;BME280;24904;52.208;21.192;2023-02-21T16:01:25;99816.15;;;6.99;68.86
39177;BME280;24904;52.208;21.192;2023-02-21T16:06:29;99826.79;;;6.86;69.44
39177;BME280;24904;52.208;21.192;2023-02-21T16:11:43;99835.39;;;6.74;69.73
39177;BME280;24904;52.208;21.192;2023-02-21T16:16:48;99836.91;;;6.68;69.80
39177;BME280;24904;52.208;21.192;2023-02-21T16:22:13;99839.73;;;6.64;69.84
39177;BME280;24904;52.208;21.192;2023-02-21T16:27:17;99842.81;;;6.62;69.55
39177;BME280;24904;52.208;21.192;2023-02-21T16:32:21;99850.05;;;6.66;69.42
39177;BME280;24904;52.208;21.192;2023-02-21T16:37:24;99858.59;;;6.68;69.35
39177;BME280;24904;52.208;21.192;2023-02-21T16:42:29;99866.38;;;6.72;69.10
39177;BME280;24904;52.208;21.192;2023-02-21T16:47:32;99867.21;;;6.75;68.86
39177;BME280;24904;52.208;21.192;2023-02-21T16:52:35;99874.21;;;6.78;68.53
39177;BME280;24904;52.208;21.192;2023-02-21T16:57:38;99876.14;;;6.82;68.49
39177;BME280;24904;52.208;21.192;2023-02-21T17:02:41;99886.16;;;6.84;68.37
39177;BME280;24904;52.208;21.192;2023-02-21T17:07:44;99892.89;;;6.90;68.21
39177;BME280;24904;52.208;21.192;2023-02-21T17:12:47;99897.52;;;6.91;68.18
39177;BME280;24904;52.208;21.192;2023-02-21T17:17:50;99906.68;;;6.93;67.89
39177;BME280;24904;52.208;21.192;2023-02-21T17:22:53;99912.02;;;6.96;68.02
39177;BME280;24904;52.208;21.192;2023-02-21T17:27:57;99916.98;;;6.99;67.58
39177;BME280;24904;52.208;21.192;2023-02-21T17:33:00;99921.88;;;6.97;67.81
39177;BME280;24904;52.208;21.192;2023-02-21T17:38:03;99924.83;;;6.96;67.51
39177;BME280;24904;52.208;21.192;2023-02-21T17:43:06;99928.70;;;6.95;67.30
39177;BME280;24904;52.208;21.192;2023-02-21T17:48:10;99928.27;;;6.96;67.29
39177;BME280;24904;52.208;21.192;2023-02-21T17:53:13;99928.46;;;6.95;67.29
39177;BME280;24904;52.208;21.192;2023-02-21T17:58:16;99927.59;;;6.94;67.48
39177;BME280;24904;52.208;21.192;2023-02-21T18:03:19;99930.00;;;6.93;67.19
39177;BME280;24904;52.208;21.192;2023-02-21T18:08:22;99935.23;;;6.90;67.07
39177;BME280;24904;52.208;21.192;2023-02-21T18:13:25;99934.23;;;6.90;67.10
39177;BME280;24904;52.208;21.192;2023-02-21T18:18:28;99945.17;;;6.91;66.94
39177;BME280;24904;52.208;21.192;2023-02-21T18:23:31;99950.23;;;6.88;66.96
39177;BME280;24904;52.208;21.192;2023-02-21T18:28:35;99952.63;;;6.90;66.99
39177;BME280;24904;52.208;21.192;2023-02-21T18:33:38;99953.12;;;6.88;66.84
39177;BME280;24904;52.208;21.192;2023-02-21T18:38:41;99955.95;;;6.84;66.88
39177;BME280;24904;52.208;21.192;2023-02-21T18:43:44;99961.38;;;6.83;67.14
39177;BME280;24904;52.208;21.192;2023-02-21T18:48:49;99970.46;;;6.77;66.95
39177;BME280;24904;52.208;21.192;2023-02-21T18:53:52;99977.46;;;6.73;67.18
39177;BME280;24904;52.208;21.192;2023-02-21T18:58:56;99987.61;;;6.65;67.18
39177;BME280;24904;52.208;21.192;2023-02-21T19:03:59;99988.77;;;6.57;67.28
39177;BME280;24904;52.208;21.192;2023-02-21T19:09:04;99990.73;;;6.50;67.29
39177;BME280;24904;52.208;21.192;2023-02-21T19:14:08;99999.59;;;6.46;67.65
39177;BME280;24904;52.208;21.192;2023-02-21T19:19:11;100008.31;;;6.42;67.72
39177;BME280;24904;52.208;21.192;2023-02-21T19:24:14;100014.35;;;6.40;67.66
39177;BME280;24904;52.208;21.192;2023-02-21T19:29:17;100015.71;;;6.38;67.78
39177;BME280;24904;52.208;21.192;2023-02-21T19:34:22;100023.76;;;6.35;67.90
39177;BME280;24904;52.208;21.192;2023-02-21T19:39:25;100026.67;;;6.34;68.03
39177;BME280;24904;52.208;21.192;2023-02-21T19:44:29;100031.91;;;6.34;68.29
39177;BME280;24904;52.208;21.192;2023-02-21T19:49:32;100034.70;;;6.31;68.26
39177;BME280;24904;52.208;21.192;2023-02-21T19:54:35;100045.70;;;6.32;68.22
39177;BME280;24904;52.208;21.192;2023-02-21T19:59:38;100050.27;;;6.27;68.32
39177;BME280;24904;52.208;21.192;2023-02-21T20:04:41;100052.85;;;6.20;68.51
39177;BME280;24904;52.208;21.192;2023-02-21T20:09:45;100060.15;;;6.19;68.48
39177;BME280;24904;52.208;21.192;2023-02-21T20:14:49;100062.14;;;6.18;68.71
39177;BME280;24904;52.208;21.192;2023-02-21T20:19:52;100068.31;;;6.16;68.47
39177;BME280;24904;52.208;21.192;2023-02-21T20:24:55;100072.32;;;6.14;68.68
39177;BME280;24904;52.208;21.192;2023-02-21T20:29:58;100077.81;;;6.12;68.78
39177;BME280;24904;52.208;21.192;2023-02-21T20:35:02;100088.52;;;6.11;68.95
39177;BME280;24904;52.208;21.192;2023-02-21T20:40:07;100096.81;;;6.08;68.97
39177;BME280;24904;52.208;21.192;2023-02-21T20:45:12;100107.30;;;6.11;69.14
39177;BME280;24904;52.208;21.192;2023-02-21T20:50:17;100116.58;;;6.15;69.74
39177;BME280;24904;52.208;21.192;2023-02-21T20:55:21;100122.75;;;6.15;70.22
39177;BME280;24904;52.208;21.192;2023-02-21T21:00:26;100132.63;;;6.15;70.61
39177;BME280;24904;52.208;21.192;2023-02-21T21:05:31;100138.48;;;6.12;71.29
39177;BME280;24904;52.208;21.192;2023-02-21T21:10:35;100136.81;;;6.02;71.97
39177;BME280;24904;52.208;21.192;2023-02-21T21:15:38;100146.14;;;5.83;72.15
39177;BME280;24904;52.208;21.192;2023-02-21T21:20:43;100142.52;;;5.71;72.79
39177;BME280;24904;52.208;21.192;2023-02-21T21:25:46;100142.52;;;5.62;73.19
39177;BME280;24904;52.208;21.192;2023-02-21T21:30:49;100153.14;;;5.58;73.23
39177;BME280;24904;52.208;21.192;2023-02-21T21:35:52;100165.48;;;5.51;73.28
39177;BME280;24904;52.208;21.192;2023-02-21T21:40:59;100170.45;;;5.43;73.30
39177;BME280;24904;52.208;21.192;2023-02-21T21:46:09;100178.86;;;5.37;73.51
39177;BME280;24904;52.208;21.192;2023-02-21T21:51:12;100180.19;;;5.35;73.91
39177;BME280;24904;52.208;21.192;2023-02-21T21:56:22;100190.30;;;5.33;73.65
39177;BME280;24904;52.208;21.192;2023-02-21T22:07:41;100199.34;;;5.38;73.81
39177;BME280;24904;52.208;21.192;2023-02-21T22:12:47;100207.26;;;5.38;73.98
39177;BME280;24904;52.208;21.192;2023-02-21T22:17:54;100216.34;;;5.34;73.78
39177;BME280;24904;52.208;21.192;2023-02-21T22:23:05;100223.33;;;5.29;73.72
39177;BME280;24904;52.208;21.192;2023-02-21T22:28:11;100236.15;;;5.28;73.61
39177;BME280;24904;52.208;21.192;2023-02-21T22:33:17;100240.63;;;5.27;73.41
39177;BME280;24904;52.208;21.192;2023-02-21T22:38:24;100248.17;;;5.24;73.75
39177;BME280;24904;52.208;21.192;2023-02-21T22:43:29;100257.59;;;5.24;73.58
39177;BME280;24904;52.208;21.192;2023-02-21T22:48:34;100256.27;;;5.24;73.93
39177;BME280;24904;52.208;21.192;2023-02-21T22:53:40;100254.41;;;5.22;73.58
39177;BME280;24904;52.208;21.192;2023-02-21T22:58:45;100257.44;;;5.18;73.65
39177;BME280;24904;52.208;21.192;2023-02-21T23:03:51;100258.78;;;5.16;74.01
39177;BME280;24904;52.208;21.192;2023-02-21T23:08:56;100258.46;;;5.16;73.85
39177;BME280;24904;52.208;21.192;2023-02-21T23:14:01;100266.10;;;5.16;74.20
39177;BME280;24904;52.208;21.192;2023-02-21T23:19:07;100283.56;;;5.10;74.15
39177;BME280;24904;52.208;21.192;2023-02-21T23:24:12;100287.70;;;5.05;74.26
39177;BME280;24904;52.208;21.192;2023-02-21T23:29:20;100295.34;;;5.06;74.50
39177;BME280;24904;52.208;21.192;2023-02-21T23:34:26;100302.75;;;5.06;74.42
39177;BME280;24904;52.208;21.192;2023-02-21T23:39:42;100310.43;;;5.01;74.31
39177;BME280;24904;52.208;21.192;2023-02-21T23:44:49;100319.45;;;5.01;74.61
39177;BME280;24904;52.208;21.192;2023-02-21T23:49:54;100323.83;;;4.97;74.60
39177;BME280;24904;52.208;21.192;2023-02-21T23:55:00;100325.71;;;4.91;74.67
